createdAt,value
2022-09-07T00:01:17.265Z,2.85
2022-09-07T00:03:43.608Z,3.90
2022-09-07T00:06:11.384Z,3.55
2022-09-07T00:08:38.012Z,4.75
2022-09-07T00:11:11.789Z,4.07
2022-09-07T00:13:39.160Z,4.15
2022-09-07T00:16:06.493Z,4.65
2022-09-07T00:18:33.106Z,4.22
2022-09-07T00:21:01.016Z,4.82
2022-09-07T00:23:28.138Z,4.38
2022-09-07T00:25:54.454Z,4.85
2022-09-07T00:28:20.804Z,5.57
2022-09-07T00:30:47.115Z,5.75
2022-09-07T00:33:13.414Z,6.72
2022-09-07T00:35:40.494Z,5.80
2022-09-07T00:38:06.858Z,6.13
2022-09-07T00:40:33.181Z,5.20
2022-09-07T00:42:59.494Z,4.50
2022-09-07T00:45:26.032Z,4.63
2022-09-07T00:47:59.186Z,4.03
2022-09-07T00:50:27.288Z,3.38
2022-09-07T00:52:56.369Z,3.47
2022-09-07T00:55:22.705Z,4.03
2022-09-07T00:57:50.746Z,3.20
2022-09-07T01:00:17.067Z,3.78
2022-09-07T01:02:43.865Z,3.63
2022-09-07T01:05:14.450Z,3.50
2022-09-07T01:07:41.047Z,4.35
2022-09-07T01:10:08.209Z,3.80
2022-09-07T01:12:34.570Z,3.50
2022-09-07T01:15:01.191Z,3.55
2022-09-07T01:17:33.355Z,3.85
2022-09-07T01:20:18.470Z,3.13
2022-09-07T01:23:03.131Z,4.25
2022-09-07T01:25:29.438Z,4.97
2022-09-07T01:27:55.716Z,4.80
2022-09-07T01:30:23.520Z,5.00
2022-09-07T01:33:08.291Z,4.65
2022-09-07T01:35:41.369Z,4.65
2022-09-07T01:38:16.231Z,3.72
2022-09-07T01:40:42.536Z,5.13
2022-09-07T01:43:31.897Z,5.10
2022-09-07T01:45:58.424Z,5.78
2022-09-07T01:48:25.386Z,4.85
2022-09-07T01:51:02.581Z,4.65
2022-09-07T01:53:28.862Z,3.42
2022-09-07T01:56:10.676Z,3.65
2022-09-07T01:58:43.159Z,3.80
2022-09-07T02:01:11.031Z,4.75
2022-09-07T02:03:41.239Z,3.40
2022-09-07T02:06:20.038Z,3.92
2022-09-07T02:08:51.477Z,4.28
2022-09-07T02:11:22.911Z,3.90
2022-09-07T02:14:00.557Z,5.03
2022-09-07T02:16:28.298Z,5.18
2022-09-07T02:19:00.916Z,4.63
2022-09-07T02:21:31.455Z,4.50
2022-09-07T02:24:05.083Z,5.22
2022-09-07T02:26:32.017Z,5.50
2022-09-07T02:28:58.378Z,5.40
2022-09-07T02:31:24.861Z,5.60
2022-09-07T02:33:51.503Z,4.53
2022-09-07T02:36:21.382Z,5.03
2022-09-07T02:38:47.690Z,5.10
2022-09-07T02:41:28.819Z,4.50
2022-09-07T02:43:55.403Z,4.15
2022-09-07T02:46:37.936Z,4.43
2022-09-07T02:51:54.730Z,3.85
2022-09-07T02:54:23.766Z,4.00
2022-09-07T02:57:00.761Z,4.50
2022-09-07T02:59:27.039Z,4.22
2022-09-07T03:01:58.446Z,4.55
2022-09-07T03:04:42.567Z,4.32
2022-09-07T03:07:12.195Z,4.30
2022-09-07T03:09:40.909Z,4.50
2022-09-07T03:12:07.710Z,4.65
2022-09-07T03:14:34.377Z,4.40
2022-09-07T03:17:01.670Z,5.20
2022-09-07T03:19:27.978Z,4.55
2022-09-07T03:21:54.289Z,5.93
2022-09-07T03:24:20.636Z,5.60
2022-09-07T03:26:48.532Z,5.28
2022-09-07T03:29:15.408Z,5.22
2022-09-07T03:31:41.727Z,5.00
2022-09-07T03:34:08.139Z,4.95
2022-09-07T03:36:34.581Z,5.82
2022-09-07T03:39:01.028Z,6.13
2022-09-07T03:41:27.598Z,6.40
2022-09-07T03:43:54.045Z,5.97
2022-09-07T03:46:20.558Z,7.63
2022-09-07T03:48:47.718Z,8.68
2022-09-07T03:51:15.008Z,9.07
2022-09-07T03:53:42.289Z,7.53
2022-09-07T03:56:10.269Z,5.95
2022-09-07T03:58:36.612Z,4.03
2022-09-07T04:01:07.374Z,4.50
2022-09-07T04:03:33.766Z,4.80
2022-09-07T04:06:00.602Z,4.45
2022-09-07T04:08:27.651Z,4.15
2022-09-07T04:10:55.397Z,4.78
2022-09-07T04:13:22.065Z,5.65
2022-09-07T04:15:53.377Z,6.45
2022-09-07T04:18:20.312Z,5.90
2022-09-07T04:20:47.143Z,6.65
2022-09-07T04:23:13.546Z,6.45
2022-09-07T04:25:46.930Z,6.70
2022-09-07T04:28:13.233Z,7.70
2022-09-07T04:30:39.577Z,6.32
2022-09-07T04:33:05.968Z,7.65
2022-09-07T04:35:35.634Z,6.85
2022-09-07T04:38:01.921Z,7.10
2022-09-07T04:40:28.213Z,7.15
2022-09-07T04:42:54.509Z,7.18
2022-09-07T04:45:20.806Z,6.10
2022-09-07T04:47:47.902Z,6.28
2022-09-07T04:50:14.863Z,6.10
2022-09-07T04:52:41.166Z,8.13
2022-09-07T04:55:07.697Z,6.38
2022-09-07T04:57:34.130Z,7.10
2022-09-07T05:00:00.426Z,6.90
2022-09-07T05:02:26.820Z,7.80
2022-09-07T05:04:53.166Z,8.27
2022-09-07T05:07:19.519Z,8.02
2022-09-07T05:09:46.847Z,7.25
2022-09-07T05:12:13.138Z,7.18
2022-09-07T05:14:39.454Z,7.50
2022-09-07T05:17:05.930Z,6.93
2022-09-07T05:19:32.272Z,7.47
2022-09-07T05:21:58.723Z,7.80
2022-09-07T05:24:26.791Z,7.60
2022-09-07T05:26:53.141Z,7.45
2022-09-07T05:32:05.934Z,6.68
2022-09-07T05:34:32.615Z,7.03
2022-09-07T05:36:59.563Z,8.02
2022-09-07T05:39:26.642Z,8.68
2022-09-07T05:41:53.533Z,7.30
2022-09-07T05:47:06.343Z,6.55
2022-09-07T05:49:32.653Z,7.05
2022-09-07T05:51:58.991Z,8.80
2022-09-07T05:54:25.422Z,7.70
2022-09-07T05:56:51.726Z,7.30
2022-09-07T05:59:18.027Z,6.65
2022-09-07T06:01:44.396Z,8.30
2022-09-07T06:04:10.791Z,8.48
2022-09-07T06:06:38.833Z,7.93
2022-09-07T06:09:05.203Z,7.65
2022-09-07T06:11:31.499Z,9.35
2022-09-07T06:13:57.801Z,9.05
2022-09-07T06:16:24.191Z,9.48
2022-09-07T06:18:50.770Z,10.35
2022-09-07T06:21:18.568Z,9.57
2022-09-07T06:23:45.570Z,9.68
2022-09-07T06:26:12.447Z,10.85
2022-09-07T06:28:39.912Z,10.80
2022-09-07T06:31:13.593Z,10.73
2022-09-07T06:33:40.922Z,9.88
2022-09-07T06:36:09.540Z,9.05
2022-09-07T06:38:37.423Z,9.65
2022-09-07T06:43:51.285Z,9.52
2022-09-07T06:49:03.980Z,9.45
2022-09-07T06:51:31.935Z,10.20
2022-09-07T06:56:44.913Z,10.60
2022-09-07T06:59:11.206Z,9.32
2022-09-07T07:01:37.511Z,10.43
2022-09-07T07:04:03.900Z,9.48
2022-09-07T07:06:36.869Z,10.52
2022-09-07T07:09:04.678Z,10.38
2022-09-07T07:11:31.152Z,11.10
2022-09-07T07:13:57.891Z,6.15
2022-09-07T07:16:24.564Z,9.38
2022-09-07T07:18:54.315Z,9.52
2022-09-07T07:21:20.646Z,9.75
2022-09-07T07:23:50.622Z,10.50
2022-09-07T07:26:18.027Z,10.40
2022-09-07T07:29:01.580Z,10.30
2022-09-07T07:31:30.126Z,10.73
2022-09-07T07:34:05.258Z,10.38
2022-09-07T07:36:50.222Z,10.95
2022-09-07T07:42:03.416Z,11.80
2022-09-07T07:44:31.980Z,10.93
2022-09-07T07:46:58.281Z,10.35
2022-09-07T07:49:24.651Z,11.52
2022-09-07T07:54:39.618Z,10.88
2022-09-07T07:57:05.943Z,10.93
2022-09-07T07:59:32.323Z,11.10
2022-09-07T08:02:04.257Z,12.20
2022-09-07T08:04:32.171Z,10.57
2022-09-07T08:06:58.482Z,11.45
2022-09-07T08:09:24.770Z,11.27
2022-09-07T08:11:51.124Z,11.68
2022-09-07T08:14:17.454Z,10.82
2022-09-07T08:16:45.608Z,13.18
2022-09-07T08:19:12.002Z,12.30
2022-09-07T08:21:38.308Z,12.63
2022-09-07T08:24:04.848Z,12.65
2022-09-07T08:26:31.156Z,12.80
2022-09-07T08:28:58.127Z,12.10
2022-09-07T08:31:24.538Z,13.00
2022-09-07T08:33:50.879Z,13.32
2022-09-07T08:36:20.497Z,12.07
2022-09-07T08:38:47.497Z,12.65
2022-09-07T08:41:16.519Z,11.85
2022-09-07T08:43:45.887Z,12.05
2022-09-07T08:46:33.962Z,13.00
2022-09-07T08:49:01.154Z,10.13
2022-09-07T08:51:38.492Z,11.75
2022-09-07T08:54:05.402Z,12.45
2022-09-07T08:56:35.186Z,12.32
2022-09-07T08:59:04.516Z,12.63
2022-09-07T09:01:32.352Z,13.35
2022-09-07T09:06:54.417Z,11.57
2022-09-07T09:09:39.461Z,11.93
2022-09-07T09:12:16.662Z,13.02
2022-09-07T09:15:09.330Z,11.15
2022-09-07T09:17:39.388Z,10.73
2022-09-07T09:20:26.334Z,10.27
2022-09-07T09:22:56.184Z,11.32
2022-09-07T09:25:26.744Z,11.40
2022-09-07T09:27:53.019Z,10.68
2022-09-07T09:30:20.745Z,11.23
2022-09-07T09:32:48.716Z,11.20
2022-09-07T09:35:17.257Z,6.72
2022-09-07T09:37:43.673Z,10.35
2022-09-07T09:40:23.737Z,10.10
2022-09-07T09:42:58.395Z,8.90
2022-09-07T09:45:27.060Z,10.43
2022-09-07T09:47:53.835Z,9.93
2022-09-07T09:53:21.920Z,9.57
2022-09-07T09:55:51.006Z,9.05
2022-09-07T10:01:26.919Z,8.90
2022-09-07T10:06:24.860Z,8.23
2022-09-07T10:08:56.347Z,7.78
2022-09-07T10:14:44.997Z,7.60
2022-09-07T10:17:27.394Z,7.93
2022-09-07T10:22:23.537Z,7.40
2022-09-07T10:24:50.309Z,7.25
2022-09-07T10:27:35.907Z,6.57
2022-09-07T10:30:06.731Z,6.47
2022-09-07T10:32:39.283Z,6.50
2022-09-07T10:35:11.923Z,5.43
2022-09-07T10:38:01.217Z,5.20
2022-09-07T10:40:42.692Z,4.20
2022-09-07T10:43:21.864Z,4.33
2022-09-07T10:46:07.077Z,4.00
2022-09-07T10:48:51.963Z,3.33
2022-09-07T10:51:26.057Z,3.33
2022-09-07T10:57:00.398Z,2.30
2022-09-07T11:02:21.745Z,2.67
2022-09-07T11:04:57.097Z,2.30
2022-09-07T11:07:29.200Z,2.03
2022-09-07T11:12:27.845Z,1.85
2022-09-07T11:15:03.470Z,2.40
2022-09-07T11:17:30.008Z,2.30
2022-09-07T11:20:13.047Z,1.98
2022-09-07T11:22:45.350Z,2.67
2022-09-07T11:25:33.057Z,2.38
2022-09-07T11:28:02.574Z,2.70
2022-09-07T11:30:34.159Z,3.30
2022-09-07T11:33:15.946Z,2.85
2022-09-07T11:35:47.889Z,3.17
2022-09-07T11:41:06.572Z,2.63
2022-09-07T11:46:12.799Z,2.28
2022-09-07T11:48:44.611Z,2.55
2022-09-07T11:51:18.449Z,2.47
2022-09-07T11:53:46.915Z,2.47
2022-09-07T11:56:16.575Z,3.58
2022-09-07T11:59:01.750Z,3.00
2022-09-07T12:01:54.291Z,2.85
2022-09-07T12:04:24.805Z,3.45
2022-09-07T12:07:01.502Z,3.30
2022-09-07T12:09:46.608Z,2.83
2022-09-07T12:12:12.911Z,2.20
2022-09-07T12:14:39.177Z,2.90
2022-09-07T12:17:14.040Z,2.70
2022-09-07T12:19:40.358Z,2.00
2022-09-07T12:22:18.672Z,2.83
2022-09-07T12:24:51.665Z,2.53
2022-09-07T12:27:20.769Z,2.22
2022-09-07T12:29:52.617Z,2.53
2022-09-07T12:32:54.326Z,2.10
2022-09-07T12:37:47.701Z,2.40
2022-09-07T12:40:29.268Z,2.10
2022-09-07T12:43:17.006Z,2.53
2022-09-07T12:45:43.301Z,2.83
2022-09-07T12:48:15.786Z,2.53
2022-09-07T12:51:00.643Z,2.40
2022-09-07T12:53:39.113Z,2.38
2022-09-07T12:56:16.002Z,2.25
2022-09-07T12:59:00.894Z,2.45
2022-09-07T13:01:33.716Z,2.25
2022-09-07T13:04:23.727Z,2.53
2022-09-07T13:07:02.275Z,2.15
2022-09-07T13:09:35.582Z,2.45
2022-09-07T13:12:04.748Z,3.13
2022-09-07T13:14:33.987Z,2.35
2022-09-07T13:17:19.422Z,2.75
2022-09-07T13:19:46.002Z,2.47
2022-09-07T13:22:47.514Z,2.67
2022-09-07T13:25:24.566Z,2.00
2022-09-07T13:27:53.925Z,2.75
2022-09-07T13:30:49.484Z,2.35
2022-09-07T13:33:25.275Z,2.33
2022-09-07T13:35:52.919Z,2.28
2022-09-07T13:38:19.380Z,1.90
2022-09-07T13:40:46.995Z,1.85
2022-09-07T13:43:19.048Z,2.05
2022-09-07T13:48:36.155Z,1.70
2022-09-07T13:51:05.714Z,2.65
2022-09-07T13:53:34.942Z,2.00
2022-09-07T13:56:01.184Z,2.10
2022-09-07T13:58:27.436Z,2.10
2022-09-07T14:00:55.218Z,2.50
2022-09-07T14:03:23.288Z,1.73
2022-09-07T14:05:49.560Z,1.70
2022-09-07T14:08:23.275Z,1.70
2022-09-07T14:10:49.653Z,2.00
2022-09-07T14:13:16.278Z,2.00
2022-09-07T14:15:44.477Z,1.20
2022-09-07T14:18:12.637Z,2.05
2022-09-07T14:20:41.519Z,1.77
2022-09-07T14:23:41.531Z,1.83
2022-09-07T14:26:17.333Z,1.63
2022-09-07T14:28:45.799Z,1.50
2022-09-07T14:31:12.968Z,1.70
2022-09-07T14:33:43.644Z,1.90
2022-09-07T14:36:36.300Z,1.63
2022-09-07T14:39:06.481Z,1.77
2022-09-07T14:41:34.630Z,1.60
2022-09-07T14:44:01.064Z,1.58
2022-09-07T14:46:28.817Z,1.80
2022-09-07T14:48:56.725Z,1.60
2022-09-07T14:51:35.118Z,1.55
2022-09-07T14:54:04.174Z,1.38
2022-09-07T14:56:33.698Z,1.52
2022-09-07T14:59:00.289Z,1.70
2022-09-07T15:01:42.292Z,1.45
2022-09-07T15:09:34.518Z,1.70
2022-09-07T15:12:08.887Z,1.30
2022-09-07T15:14:36.257Z,1.65
2022-09-07T15:19:50.288Z,1.70
2022-09-07T15:22:17.291Z,1.98
2022-09-07T15:24:43.879Z,1.80
2022-09-07T15:27:20.325Z,1.48
2022-09-07T15:29:46.725Z,1.50
2022-09-07T15:32:13.121Z,1.85
2022-09-07T15:34:39.412Z,1.45
2022-09-07T15:38:00.956Z,1.65
2022-09-07T15:39:53.030Z,1.50
2022-09-07T15:45:06.080Z,1.70
2022-09-07T15:47:51.703Z,2.33
2022-09-07T15:50:18.751Z,2.42
2022-09-07T15:52:46.464Z,1.55
2022-09-07T15:55:13.599Z,1.42
2022-09-07T15:58:09.074Z,2.08
2022-09-07T16:00:26.341Z,1.35
2022-09-07T16:03:08.851Z,2.25
2022-09-07T16:05:35.559Z,2.70
2022-09-07T16:11:05.749Z,1.63
2022-09-07T16:13:32.172Z,2.00
2022-09-07T16:15:59.779Z,1.60
2022-09-07T16:18:26.979Z,1.35
2022-09-07T16:20:57.350Z,1.77
2022-09-07T16:23:23.607Z,1.40
2022-09-07T16:25:59.821Z,1.65
2022-09-07T16:28:26.781Z,1.48
2022-09-07T16:30:53.345Z,1.98
2022-09-07T16:33:19.687Z,1.85
2022-09-07T16:36:01.993Z,1.70
2022-09-07T16:41:13.455Z,2.03
2022-09-07T16:43:39.832Z,1.85
2022-09-07T16:46:07.441Z,1.65
2022-09-07T16:48:35.189Z,1.58
2022-09-07T16:51:02.937Z,1.92
2022-09-07T16:53:29.814Z,1.73
2022-09-07T16:56:02.393Z,1.75
2022-09-07T16:58:37.252Z,1.58
2022-09-07T17:01:04.864Z,2.03
2022-09-07T17:03:31.427Z,1.52
2022-09-07T17:05:59.864Z,1.80
2022-09-07T17:08:26.386Z,1.40
2022-09-07T17:10:58.172Z,1.83
2022-09-07T17:13:24.452Z,1.50
2022-09-07T17:15:50.773Z,2.38
2022-09-07T17:18:17.741Z,2.75
2022-09-07T17:20:53.329Z,2.95
2022-09-07T17:23:21.402Z,2.10
2022-09-07T17:25:47.838Z,2.00
2022-09-07T17:28:15.304Z,2.60
2022-09-07T17:30:41.774Z,1.92
2022-09-07T17:33:08.162Z,1.90
2022-09-07T17:35:37.416Z,2.60
2022-09-07T17:39:13.918Z,2.13
2022-09-07T17:40:50.802Z,4.50
2022-09-07T17:46:08.210Z,2.60
2022-09-07T17:48:35.054Z,3.42
2022-09-07T17:51:02.234Z,2.63
2022-09-07T17:53:28.555Z,2.25
2022-09-07T17:55:54.936Z,2.20
2022-09-07T17:58:21.247Z,2.33
2022-09-07T18:00:47.703Z,2.33
2022-09-07T18:03:14.224Z,2.55
2022-09-07T18:05:40.487Z,2.72
2022-09-07T18:08:07.969Z,2.63
2022-09-07T18:13:30.857Z,2.60
2022-09-07T18:16:02.164Z,2.38
2022-09-07T18:18:28.549Z,1.85
2022-09-07T18:20:54.871Z,2.17
2022-09-07T18:23:21.181Z,2.03
2022-09-07T18:25:55.593Z,1.75
2022-09-07T18:31:09.652Z,2.10
2022-09-07T18:33:36.181Z,2.70
2022-09-07T18:36:03.542Z,2.20
2022-09-07T18:38:29.897Z,2.92
2022-09-07T18:41:01.923Z,2.17
2022-09-07T18:43:28.275Z,2.45
2022-09-07T18:46:00.074Z,2.10
2022-09-07T18:48:26.445Z,2.72
2022-09-07T18:50:53.530Z,2.35
2022-09-07T18:53:19.849Z,2.55
2022-09-07T18:55:46.091Z,2.40
2022-09-07T18:58:12.372Z,2.08
2022-09-07T19:00:41.974Z,1.95
2022-09-07T19:03:08.697Z,2.30
2022-09-07T19:05:50.980Z,2.10
2022-09-07T19:08:17.547Z,2.33
2022-09-07T19:10:43.824Z,2.38
2022-09-07T19:13:10.224Z,3.05
2022-09-07T19:15:37.599Z,2.90
2022-09-07T19:18:05.557Z,2.90
2022-09-07T19:20:32.987Z,2.78
2022-09-07T19:22:59.441Z,2.67
2022-09-07T19:25:25.769Z,2.75
2022-09-07T19:27:52.229Z,3.17
2022-09-07T19:30:18.559Z,2.90
2022-09-07T19:32:44.899Z,2.90
2022-09-07T19:35:11.205Z,2.95
2022-09-07T19:37:37.462Z,3.45
2022-09-07T19:40:04.097Z,3.28
2022-09-07T19:42:30.409Z,4.63
2022-09-07T19:44:56.680Z,3.45
2022-09-07T19:47:23.786Z,3.78
2022-09-07T19:49:50.100Z,3.40
2022-09-07T19:52:16.547Z,2.65
2022-09-07T19:54:43.741Z,2.85
2022-09-07T19:57:10.115Z,3.17
2022-09-07T19:59:36.398Z,3.00
2022-09-07T20:02:02.686Z,3.35
2022-09-07T20:04:29.175Z,3.10
2022-09-07T20:06:56.221Z,3.28
2022-09-07T20:09:22.484Z,2.97
2022-09-07T20:11:49.286Z,2.95
2022-09-07T20:14:16.156Z,3.45
2022-09-07T20:16:42.577Z,4.65
2022-09-07T20:19:10.640Z,3.10
2022-09-07T20:21:37.201Z,3.13
2022-09-07T20:24:03.734Z,3.00
2022-09-07T20:26:33.078Z,3.28
2022-09-07T20:29:23.444Z,3.47
2022-09-07T20:31:46.607Z,3.88
2022-09-07T20:34:13.087Z,3.47
2022-09-07T20:36:39.935Z,3.58
2022-09-07T20:39:06.214Z,3.60
2022-09-07T20:41:34.023Z,3.45
2022-09-07T20:44:01.255Z,4.38
2022-09-07T20:46:28.866Z,4.05
2022-09-07T20:48:55.453Z,4.47
2022-09-07T20:51:21.883Z,6.05
2022-09-07T20:53:48.751Z,5.38
2022-09-07T20:56:16.799Z,5.38
2022-09-07T20:58:43.817Z,5.95
2022-09-07T21:01:10.767Z,5.35
2022-09-07T21:03:37.343Z,5.32
2022-09-07T21:06:04.782Z,4.13
2022-09-07T21:08:34.842Z,4.35
2022-09-07T21:11:05.011Z,5.38
2022-09-07T21:13:31.275Z,4.68
2022-09-07T21:16:02.124Z,4.75
2022-09-07T21:18:28.442Z,4.43
2022-09-07T21:21:18.949Z,4.18
2022-09-07T21:23:44.330Z,4.57
2022-09-07T21:26:10.586Z,5.22
2022-09-07T21:28:36.933Z,5.53
2022-09-07T21:31:04.738Z,5.05
2022-09-07T21:33:31.693Z,5.68
2022-09-07T21:36:04.743Z,5.13
2022-09-07T21:38:31.026Z,5.30
2022-09-07T21:40:57.387Z,4.82
2022-09-07T21:43:23.707Z,4.72
2022-09-07T21:45:50.039Z,4.97
2022-09-07T21:48:16.332Z,5.65
2022-09-07T21:50:43.318Z,4.65
2022-09-07T21:53:10.347Z,4.35
2022-09-07T21:55:37.505Z,5.22
2022-09-07T21:58:03.770Z,5.50
2022-09-07T22:00:30.187Z,4.75
2022-09-07T22:02:56.542Z,4.78
2022-09-07T22:05:22.795Z,5.05
2022-09-07T22:07:49.070Z,5.30
2022-09-07T22:10:15.345Z,4.65
2022-09-07T22:12:41.801Z,4.43
2022-09-07T22:15:08.267Z,4.57
2022-09-07T22:17:34.606Z,5.35
2022-09-07T22:20:00.888Z,4.85
2022-09-07T22:22:27.158Z,5.43
2022-09-07T22:24:53.591Z,4.97
2022-09-07T22:27:19.866Z,5.90
2022-09-07T22:29:46.170Z,5.65
2022-09-07T22:32:12.500Z,5.70
2022-09-07T22:34:38.784Z,7.25
2022-09-07T22:37:05.043Z,5.85
2022-09-07T22:39:31.666Z,6.40
2022-09-07T22:41:58.010Z,8.02
2022-09-07T22:44:24.607Z,7.30
2022-09-07T22:46:50.996Z,6.43
2022-09-07T22:49:17.303Z,6.32
2022-09-07T22:51:44.259Z,6.90
2022-09-07T22:54:10.836Z,6.80
2022-09-07T22:56:38.168Z,7.03
2022-09-07T22:59:05.387Z,6.90
2022-09-07T23:01:31.991Z,6.75
2022-09-07T23:03:58.528Z,7.47
2022-09-07T23:06:28.841Z,7.95
2022-09-07T23:08:55.895Z,8.07
2022-09-07T23:11:23.908Z,9.02
2022-09-07T23:13:51.421Z,6.97
2022-09-07T23:16:17.818Z,8.35
2022-09-07T23:18:44.138Z,7.88
2022-09-07T23:21:10.849Z,8.13
2022-09-07T23:23:37.168Z,7.97
2022-09-07T23:26:04.278Z,8.68
2022-09-07T23:28:31.105Z,7.90
2022-09-07T23:30:57.754Z,8.35
2022-09-07T23:33:24.534Z,9.52
2022-09-07T23:35:57.871Z,8.95
2022-09-07T23:38:24.867Z,9.57
2022-09-07T23:40:51.239Z,9.20
2022-09-07T23:43:17.500Z,8.98
2022-09-07T23:45:43.764Z,9.13
2022-09-07T23:48:10.024Z,8.68
2022-09-07T23:50:36.319Z,9.95
2022-09-07T23:53:02.619Z,9.70
2022-09-07T23:55:28.887Z,9.07
2022-09-07T23:57:55.179Z,9.00
